sensor_id;sensor_type;location;lat;lon;timestamp;P1;durP1;ratioP1;P2;durP2;ratioP2
33840;SDS011;20142;28.494;-16.312;2023-11-21T00:01:19;2.65;;;0.40;;
33840;SDS011;20142;28.494;-16.312;2023-11-21T00:06:21;3.20;;;0.55;;
33840;SDS011;20142;28.494;-16.312;2023-11-21T00:11:22;2.13;;;0.40;;
33840;SDS011;20142;28.494;-16.312;2023-11-21T00:16:25;1.75;;;0.50;;
33840;SDS011;20142;28.494;-16.312;2023-11-21T00:21:27;1.73;;;0.45;;
33840;SDS011;20142;28.494;-16.312;2023-11-21T00:26:29;2.30;;;0.60;;
33840;SDS011;20142;28.494;-16.312;2023-11-21T00:31:37;2.17;;;0.43;;
33840;SDS011;20142;28.494;-16.312;2023-11-21T00:36:39;2.28;;;0.30;;
33840;SDS011;20142;28.494;-16.312;2023-11-21T00:41:41;5.47;;;0.60;;
33840;SDS011;20142;28.494;-16.312;2023-11-21T00:46:45;4.75;;;1.00;;
33840;SDS011;20142;28.494;-16.312;2023-11-21T00:51:47;6.85;;;0.80;;
33840;SDS011;20142;28.494;-16.312;2023-11-21T00:56:48;2.20;;;0.40;;
33840;SDS011;20142;28.494;-16.312;2023-11-21T01:01:50;2.75;;;0.63;;
33840;SDS011;20142;28.494;-16.312;2023-11-21T01:06:52;2.53;;;0.40;;
33840;SDS011;20142;28.494;-16.312;2023-11-21T01:11:53;4.15;;;0.60;;
33840;SDS011;20142;28.494;-16.312;2023-11-21T01:16:55;2.63;;;0.40;;
33840;SDS011;20142;28.494;-16.312;2023-11-21T01:21:57;2.78;;;0.63;;
33840;SDS011;20142;28.494;-16.312;2023-11-21T01:26:58;4.53;;;0.43;;
33840;SDS011;20142;28.494;-16.312;2023-11-21T01:32:01;6.47;;;0.70;;
33840;SDS011;20142;28.494;-16.312;2023-11-21T01:37:05;5.75;;;0.60;;
33840;SDS011;20142;28.494;-16.312;2023-11-21T01:42:06;4.28;;;0.70;;
33840;SDS011;20142;28.494;-16.312;2023-11-21T01:47:08;4.45;;;0.95;;
33840;SDS011;20142;28.494;-16.312;2023-11-21T01:52:10;4.53;;;0.70;;
33840;SDS011;20142;28.494;-16.312;2023-11-21T01:57:13;7.38;;;0.70;;
33840;SDS011;20142;28.494;-16.312;2023-11-21T02:02:16;5.97;;;0.80;;
33840;SDS011;20142;28.494;-16.312;2023-11-21T02:07:18;6.70;;;0.95;;
33840;SDS011;20142;28.494;-16.312;2023-11-21T02:12:20;6.20;;;1.20;;
33840;SDS011;20142;28.494;-16.312;2023-11-21T02:17:21;9.40;;;1.35;;
33840;SDS011;20142;28.494;-16.312;2023-11-21T02:22:23;11.25;;;1.08;;
33840;SDS011;20142;28.494;-16.312;2023-11-21T02:27:29;10.80;;;1.60;;
33840;SDS011;20142;28.494;-16.312;2023-11-21T02:32:31;14.23;;;1.60;;
33840;SDS011;20142;28.494;-16.312;2023-11-21T02:37:33;18.25;;;2.03;;
33840;SDS011;20142;28.494;-16.312;2023-11-21T02:42:36;17.98;;;2.05;;
33840;SDS011;20142;28.494;-16.312;2023-11-21T02:47:37;14.50;;;2.10;;
33840;SDS011;20142;28.494;-16.312;2023-11-21T02:52:40;13.60;;;2.40;;
33840;SDS011;20142;28.494;-16.312;2023-11-21T02:57:42;23.48;;;2.72;;
33840;SDS011;20142;28.494;-16.312;2023-11-21T03:02:43;18.70;;;2.10;;
33840;SDS011;20142;28.494;-16.312;2023-11-21T08:27:18;5.88;;;1.02;;
33840;SDS011;20142;28.494;-16.312;2023-11-21T08:32:20;3.83;;;1.20;;
33840;SDS011;20142;28.494;-16.312;2023-11-21T08:37:22;8.55;;;1.13;;
33840;SDS011;20142;28.494;-16.312;2023-11-21T08:42:24;15.50;;;1.35;;
33840;SDS011;20142;28.494;-16.312;2023-11-21T08:47:26;8.07;;;1.30;;
33840;SDS011;20142;28.494;-16.312;2023-11-21T08:52:28;7.40;;;0.80;;
33840;SDS011;20142;28.494;-16.312;2023-11-21T08:57:29;7.78;;;1.00;;
33840;SDS011;20142;28.494;-16.312;2023-11-21T09:02:31;5.43;;;0.60;;
33840;SDS011;20142;28.494;-16.312;2023-11-21T09:07:34;7.13;;;0.75;;
33840;SDS011;20142;28.494;-16.312;2023-11-21T09:12:37;8.80;;;1.17;;
33840;SDS011;20142;28.494;-16.312;2023-11-21T09:17:39;8.80;;;1.13;;
33840;SDS011;20142;28.494;-16.312;2023-11-21T09:22:41;8.25;;;1.15;;
33840;SDS011;20142;28.494;-16.312;2023-11-21T09:27:45;14.75;;;1.17;;
33840;SDS011;20142;28.494;-16.312;2023-11-21T09:32:47;9.75;;;0.80;;
33840;SDS011;20142;28.494;-16.312;2023-11-21T09:37:49;7.70;;;0.80;;
33840;SDS011;20142;28.494;-16.312;2023-11-21T09:42:55;9.75;;;1.10;;
33840;SDS011;20142;28.494;-16.312;2023-11-21T09:47:59;7.60;;;1.60;;
33840;SDS011;20142;28.494;-16.312;2023-11-21T09:53:20;17.48;;;1.98;;
33840;SDS011;20142;28.494;-16.312;2023-11-21T09:58:24;10.80;;;1.67;;
33840;SDS011;20142;28.494;-16.312;2023-11-21T10:03:27;8.80;;;1.40;;
33840;SDS011;20142;28.494;-16.312;2023-11-21T10:08:29;7.60;;;1.45;;
33840;SDS011;20142;28.494;-16.312;2023-11-21T10:13:32;11.48;;;1.80;;
33840;SDS011;20142;28.494;-16.312;2023-11-21T10:18:35;15.43;;;1.85;;
33840;SDS011;20142;28.494;-16.312;2023-11-21T10:23:40;13.55;;;2.60;;
33840;SDS011;20142;28.494;-16.312;2023-11-21T10:29:03;18.83;;;5.03;;
33840;SDS011;20142;28.494;-16.312;2023-11-21T10:34:14;8.65;;;1.85;;
33840;SDS011;20142;28.494;-16.312;2023-11-21T10:39:17;11.05;;;1.45;;
33840;SDS011;20142;28.494;-16.312;2023-11-21T10:44:21;16.02;;;1.55;;
33840;SDS011;20142;28.494;-16.312;2023-11-21T10:49:24;9.13;;;1.45;;
33840;SDS011;20142;28.494;-16.312;2023-11-21T10:54:27;12.52;;;1.70;;
33840;SDS011;20142;28.494;-16.312;2023-11-21T10:59:30;12.80;;;1.30;;
33840;SDS011;20142;28.494;-16.312;2023-11-21T11:04:32;18.17;;;1.95;;
33840;SDS011;20142;28.494;-16.312;2023-11-21T11:09:38;15.07;;;2.00;;
33840;SDS011;20142;28.494;-16.312;2023-11-21T11:14:40;10.45;;;1.60;;
33840;SDS011;20142;28.494;-16.312;2023-11-21T11:19:44;17.27;;;1.85;;
33840;SDS011;20142;28.494;-16.312;2023-11-21T11:30:57;13.75;;;1.83;;
33840;SDS011;20142;28.494;-16.312;2023-11-21T11:36:31;6.40;;;1.17;;
33840;SDS011;20142;28.494;-16.312;2023-11-21T11:41:42;15.82;;;1.33;;
33840;SDS011;20142;28.494;-16.312;2023-11-21T11:46:45;8.75;;;1.23;;
33840;SDS011;20142;28.494;-16.312;2023-11-21T11:51:47;8.75;;;1.23;;
33840;SDS011;20142;28.494;-16.312;2023-11-21T11:56:49;8.48;;;1.40;;
33840;SDS011;20142;28.494;-16.312;2023-11-21T12:01:50;9.55;;;1.42;;
33840;SDS011;20142;28.494;-16.312;2023-11-21T12:06:52;7.03;;;1.50;;
33840;SDS011;20142;28.494;-16.312;2023-11-21T12:11:55;16.15;;;2.50;;
33840;SDS011;20142;28.494;-16.312;2023-11-21T12:16:57;17.95;;;3.33;;
33840;SDS011;20142;28.494;-16.312;2023-11-21T12:22:00;24.20;;;3.35;;
33840;SDS011;20142;28.494;-16.312;2023-11-21T12:27:02;22.95;;;2.88;;
33840;SDS011;20142;28.494;-16.312;2023-11-21T12:32:04;23.67;;;2.92;;
33840;SDS011;20142;28.494;-16.312;2023-11-21T12:37:07;25.27;;;3.45;;
33840;SDS011;20142;28.494;-16.312;2023-11-21T12:42:09;27.88;;;4.32;;
33840;SDS011;20142;28.494;-16.312;2023-11-21T12:47:11;17.40;;;2.90;;
33840;SDS011;20142;28.494;-16.312;2023-11-21T12:52:18;16.58;;;3.10;;
33840;SDS011;20142;28.494;-16.312;2023-11-21T12:57:19;16.08;;;3.20;;
33840;SDS011;20142;28.494;-16.312;2023-11-21T13:02:21;15.07;;;2.78;;
33840;SDS011;20142;28.494;-16.312;2023-11-21T13:07:25;18.40;;;4.63;;
33840;SDS011;20142;28.494;-16.312;2023-11-21T13:12:27;17.00;;;3.13;;
33840;SDS011;20142;28.494;-16.312;2023-11-21T13:17:29;19.10;;;3.70;;
33840;SDS011;20142;28.494;-16.312;2023-11-21T13:22:31;19.88;;;4.28;;
33840;SDS011;20142;28.494;-16.312;2023-11-21T13:27:33;20.77;;;3.78;;
33840;SDS011;20142;28.494;-16.312;2023-11-21T13:32:37;21.13;;;4.40;;
33840;SDS011;20142;28.494;-16.312;2023-11-21T13:37:39;19.60;;;4.13;;
33840;SDS011;20142;28.494;-16.312;2023-11-21T13:42:41;24.95;;;3.47;;
33840;SDS011;20142;28.494;-16.312;2023-11-21T13:47:43;16.15;;;3.58;;
33840;SDS011;20142;28.494;-16.312;2023-11-21T13:52:46;17.20;;;3.50;;
33840;SDS011;20142;28.494;-16.312;2023-11-21T13:57:47;18.15;;;3.85;;
33840;SDS011;20142;28.494;-16.312;2023-11-21T14:02:53;13.90;;;2.80;;
33840;SDS011;20142;28.494;-16.312;2023-11-21T14:07:55;13.15;;;2.85;;
33840;SDS011;20142;28.494;-16.312;2023-11-21T14:13:03;17.30;;;3.05;;
33840;SDS011;20142;28.494;-16.312;2023-11-21T14:18:06;12.32;;;3.03;;
33840;SDS011;20142;28.494;-16.312;2023-11-21T14:23:11;15.73;;;3.58;;
33840;SDS011;20142;28.494;-16.312;2023-11-21T14:28:13;16.23;;;2.90;;
33840;SDS011;20142;28.494;-16.312;2023-11-21T14:33:15;16.58;;;3.88;;
33840;SDS011;20142;28.494;-16.312;2023-11-21T14:38:17;18.35;;;3.95;;
33840;SDS011;20142;28.494;-16.312;2023-11-21T14:43:19;17.17;;;3.92;;
33840;SDS011;20142;28.494;-16.312;2023-11-21T14:48:21;17.77;;;3.78;;
33840;SDS011;20142;28.494;-16.312;2023-11-21T14:53:42;20.95;;;3.95;;
33840;SDS011;20142;28.494;-16.312;2023-11-21T14:58:54;19.80;;;3.97;;
33840;SDS011;20142;28.494;-16.312;2023-11-21T15:04:00;13.20;;;3.42;;
33840;SDS011;20142;28.494;-16.312;2023-11-21T15:09:02;13.52;;;3.58;;
33840;SDS011;20142;28.494;-16.312;2023-11-21T15:14:07;14.02;;;3.78;;
33840;SDS011;20142;28.494;-16.312;2023-11-21T15:19:10;16.60;;;3.53;;
33840;SDS011;20142;28.494;-16.312;2023-11-21T15:24:13;11.30;;;3.15;;
33840;SDS011;20142;28.494;-16.312;2023-11-21T15:29:15;20.83;;;3.28;;
33840;SDS011;20142;28.494;-16.312;2023-11-21T15:34:16;13.18;;;3.13;;
33840;SDS011;20142;28.494;-16.312;2023-11-21T15:39:18;12.15;;;2.50;;
33840;SDS011;20142;28.494;-16.312;2023-11-21T15:44:22;11.05;;;3.10;;
33840;SDS011;20142;28.494;-16.312;2023-11-21T15:49:26;15.15;;;2.88;;
33840;SDS011;20142;28.494;-16.312;2023-11-21T15:54:30;10.77;;;2.65;;
33840;SDS011;20142;28.494;-16.312;2023-11-21T15:59:33;16.10;;;3.13;;
33840;SDS011;20142;28.494;-16.312;2023-11-21T16:04:35;12.93;;;3.45;;
33840;SDS011;20142;28.494;-16.312;2023-11-21T16:09:38;18.10;;;4.28;;
33840;SDS011;20142;28.494;-16.312;2023-11-21T16:14:43;15.52;;;4.20;;
33840;SDS011;20142;28.494;-16.312;2023-11-21T16:19:48;17.02;;;3.53;;
33840;SDS011;20142;28.494;-16.312;2023-11-21T16:24:50;17.23;;;3.42;;
33840;SDS011;20142;28.494;-16.312;2023-11-21T16:29:51;17.80;;;3.88;;
33840;SDS011;20142;28.494;-16.312;2023-11-21T16:34:53;16.00;;;3.42;;
33840;SDS011;20142;28.494;-16.312;2023-11-21T16:39:57;12.95;;;2.83;;
33840;SDS011;20142;28.494;-16.312;2023-11-21T16:44:59;12.98;;;3.15;;
33840;SDS011;20142;28.494;-16.312;2023-11-21T16:50:01;15.57;;;2.70;;
33840;SDS011;20142;28.494;-16.312;2023-11-21T16:55:04;12.52;;;2.45;;
33840;SDS011;20142;28.494;-16.312;2023-11-21T17:00:06;12.98;;;2.75;;
33840;SDS011;20142;28.494;-16.312;2023-11-21T17:05:11;20.98;;;5.18;;
33840;SDS011;20142;28.494;-16.312;2023-11-21T17:10:13;10.13;;;2.40;;
33840;SDS011;20142;28.494;-16.312;2023-11-21T17:15:15;11.93;;;2.47;;
33840;SDS011;20142;28.494;-16.312;2023-11-21T17:20:17;10.98;;;2.97;;
33840;SDS011;20142;28.494;-16.312;2023-11-21T17:25:19;15.80;;;3.25;;
33840;SDS011;20142;28.494;-16.312;2023-11-21T17:30:21;5.80;;;1.67;;
33840;SDS011;20142;28.494;-16.312;2023-11-21T17:35:23;12.45;;;2.80;;
33840;SDS011;20142;28.494;-16.312;2023-11-21T17:40:25;5.80;;;2.20;;
33840;SDS011;20142;28.494;-16.312;2023-11-21T17:45:27;11.77;;;1.95;;
33840;SDS011;20142;28.494;-16.312;2023-11-21T17:50:28;11.90;;;1.55;;
33840;SDS011;20142;28.494;-16.312;2023-11-21T17:55:30;8.88;;;2.20;;
33840;SDS011;20142;28.494;-16.312;2023-11-21T18:00:32;18.58;;;2.55;;
33840;SDS011;20142;28.494;-16.312;2023-11-21T18:05:34;14.90;;;2.70;;
33840;SDS011;20142;28.494;-16.312;2023-11-21T18:10:38;5.90;;;1.45;;
33840;SDS011;20142;28.494;-16.312;2023-11-21T18:15:39;8.15;;;2.17;;
33840;SDS011;20142;28.494;-16.312;2023-11-21T18:20:41;14.23;;;1.80;;
33840;SDS011;20142;28.494;-16.312;2023-11-21T18:25:43;6.40;;;1.38;;
33840;SDS011;20142;28.494;-16.312;2023-11-21T18:30:45;7.60;;;1.63;;
33840;SDS011;20142;28.494;-16.312;2023-11-21T18:35:49;9.13;;;1.63;;
33840;SDS011;20142;28.494;-16.312;2023-11-21T18:40:50;8.27;;;1.70;;
33840;SDS011;20142;28.494;-16.312;2023-11-21T18:45:52;6.07;;;1.60;;
33840;SDS011;20142;28.494;-16.312;2023-11-21T18:50:55;10.82;;;1.90;;
33840;SDS011;20142;28.494;-16.312;2023-11-21T18:55:57;6.78;;;1.80;;
33840;SDS011;20142;28.494;-16.312;2023-11-21T19:00:59;11.52;;;1.83;;
33840;SDS011;20142;28.494;-16.312;2023-11-21T19:06:00;13.35;;;1.83;;
33840;SDS011;20142;28.494;-16.312;2023-11-21T19:11:02;6.68;;;1.48;;
33840;SDS011;20142;28.494;-16.312;2023-11-21T19:16:04;7.70;;;1.58;;
33840;SDS011;20142;28.494;-16.312;2023-11-21T19:21:06;13.13;;;1.83;;
33840;SDS011;20142;28.494;-16.312;2023-11-21T19:26:17;14.07;;;1.85;;
33840;SDS011;20142;28.494;-16.312;2023-11-21T19:31:19;9.02;;;1.88;;
33840;SDS011;20142;28.494;-16.312;2023-11-21T19:36:21;11.05;;;1.70;;
33840;SDS011;20142;28.494;-16.312;2023-11-21T19:41:23;7.05;;;1.60;;
33840;SDS011;20142;28.494;-16.312;2023-11-21T19:46:25;5.95;;;1.20;;
33840;SDS011;20142;28.494;-16.312;2023-11-21T19:51:27;11.00;;;1.40;;
33840;SDS011;20142;28.494;-16.312;2023-11-21T19:56:29;5.38;;;1.83;;
33840;SDS011;20142;28.494;-16.312;2023-11-21T20:01:31;5.60;;;0.95;;
33840;SDS011;20142;28.494;-16.312;2023-11-21T20:06:37;4.05;;;0.82;;
33840;SDS011;20142;28.494;-16.312;2023-11-21T20:11:40;8.95;;;1.83;;
33840;SDS011;20142;28.494;-16.312;2023-11-21T20:16:43;8.13;;;2.38;;
33840;SDS011;20142;28.494;-16.312;2023-11-21T20:21:50;4.15;;;1.20;;
33840;SDS011;20142;28.494;-16.312;2023-11-21T20:26:52;7.05;;;1.40;;
33840;SDS011;20142;28.494;-16.312;2023-11-21T20:31:57;4.70;;;1.38;;
33840;SDS011;20142;28.494;-16.312;2023-11-21T20:36:59;6.97;;;1.55;;
33840;SDS011;20142;28.494;-16.312;2023-11-21T20:42:01;7.97;;;1.33;;
33840;SDS011;20142;28.494;-16.312;2023-11-21T20:47:04;5.47;;;1.17;;
33840;SDS011;20142;28.494;-16.312;2023-11-21T20:52:06;9.70;;;1.20;;
33840;SDS011;20142;28.494;-16.312;2023-11-21T20:57:07;8.40;;;1.27;;
33840;SDS011;20142;28.494;-16.312;2023-11-21T21:02:10;6.93;;;1.35;;
33840;SDS011;20142;28.494;-16.312;2023-11-21T21:07:12;8.05;;;1.15;;
33840;SDS011;20142;28.494;-16.312;2023-11-21T21:12:14;10.40;;;1.60;;
33840;SDS011;20142;28.494;-16.312;2023-11-21T21:17:16;8.57;;;1.55;;
33840;SDS011;20142;28.494;-16.312;2023-11-21T21:22:18;6.88;;;1.13;;
33840;SDS011;20142;28.494;-16.312;2023-11-21T21:27:20;7.53;;;1.35;;
33840;SDS011;20142;28.494;-16.312;2023-11-21T21:32:23;4.85;;;1.10;;
33840;SDS011;20142;28.494;-16.312;2023-11-21T21:37:25;7.45;;;1.20;;
33840;SDS011;20142;28.494;-16.312;2023-11-21T21:42:27;10.55;;;1.40;;
33840;SDS011;20142;28.494;-16.312;2023-11-21T21:47:29;8.43;;;2.00;;
33840;SDS011;20142;28.494;-16.312;2023-11-21T21:52:34;7.25;;;1.67;;
33840;SDS011;20142;28.494;-16.312;2023-11-21T21:57:37;9.68;;;1.42;;
33840;SDS011;20142;28.494;-16.312;2023-11-21T22:02:42;7.30;;;2.30;;
33840;SDS011;20142;28.494;-16.312;2023-11-21T22:07:43;11.90;;;2.00;;
33840;SDS011;20142;28.494;-16.312;2023-11-21T22:12:45;13.27;;;2.10;;
33840;SDS011;20142;28.494;-16.312;2023-11-21T22:17:47;9.57;;;1.90;;
33840;SDS011;20142;28.494;-16.312;2023-11-21T22:22:51;16.48;;;3.35;;
33840;SDS011;20142;28.494;-16.312;2023-11-21T22:27:52;16.60;;;3.33;;
33840;SDS011;20142;28.494;-16.312;2023-11-21T22:32:54;11.50;;;2.85;;
33840;SDS011;20142;28.494;-16.312;2023-11-21T22:37:57;10.35;;;3.28;;
33840;SDS011;20142;28.494;-16.312;2023-11-21T22:42:59;7.85;;;3.08;;
33840;SDS011;20142;28.494;-16.312;2023-11-21T22:48:01;10.05;;;2.20;;
33840;SDS011;20142;28.494;-16.312;2023-11-21T22:53:03;9.00;;;2.10;;
33840;SDS011;20142;28.494;-16.312;2023-11-21T22:58:05;7.18;;;2.05;;
33840;SDS011;20142;28.494;-16.312;2023-11-21T23:03:07;11.23;;;2.38;;
33840;SDS011;20142;28.494;-16.312;2023-11-21T23:08:09;9.65;;;2.15;;
33840;SDS011;20142;28.494;-16.312;2023-11-21T23:13:11;9.85;;;2.33;;
33840;SDS011;20142;28.494;-16.312;2023-11-21T23:18:14;10.55;;;2.58;;
33840;SDS011;20142;28.494;-16.312;2023-11-21T23:23:16;10.18;;;2.47;;
33840;SDS011;20142;28.494;-16.312;2023-11-21T23:28:17;12.30;;;3.00;;
33840;SDS011;20142;28.494;-16.312;2023-11-21T23:33:20;7.53;;;2.17;;
33840;SDS011;20142;28.494;-16.312;2023-11-21T23:38:22;8.73;;;2.22;;
33840;SDS011;20142;28.494;-16.312;2023-11-21T23:43:23;9.30;;;2.45;;
33840;SDS011;20142;28.494;-16.312;2023-11-21T23:48:27;9.27;;;2.47;;
33840;SDS011;20142;28.494;-16.312;2023-11-21T23:53:29;9.93;;;2.30;;
33840;SDS011;20142;28.494;-16.312;2023-11-21T23:58:30;5.70;;;1.77;;
